Time;durP1;ratioP1;P1;durP2;ratioP2;P2;SDS_P1;SDS_P2;PMS_P1;PMS_P2;Temp;Humidity;BMP_temperature;BMP_pressure;BME280_temperature;BME280_humidity;BME280_pressure;Samples;Min_cycle;Max_cycle;Signal;HPM_P1;HPM_P2
2022/02/11 00:07:10;;;;;;;5.53;1.80;;;;;;;4.50;100.00;101820.44;4999694;28;20279;-76
2022/02/11 00:09:39;;;;;;;7.83;2.33;;;;;;;4.21;100.00;101794.63;5002267;28;20213;-74
2022/02/11 00:12:05;;;;;;;9.07;1.73;;;;;;;4.22;100.00;101808.72;4998950;28;20440;-74
2022/02/11 00:14:38;;;;;;;10.53;2.13;;;;;;;3.74;100.00;101724.44;4999319;28;20444;-73
2022/02/11 00:17:03;;;;;;;8.10;2.00;;;;;;;4.31;100.00;101807.94;4998478;28;20455;-73
2022/02/11 00:19:29;;;;;;;12.17;1.80;;;;;;;4.41;100.00;101805.31;5001298;28;20666;-73
2022/02/11 00:21:54;;;;;;;7.87;2.20;;;;;;;4.45;100.00;101820.84;5001305;28;20301;-74
2022/02/11 00:24:20;;;;;;;9.53;1.70;;;;;;;4.04;100.00;101739.47;5000766;28;20186;-74
2022/02/11 00:26:58;;;;;;;4.53;1.30;;;;;;;3.49;100.00;101731.81;4999751;28;20205;-73
2022/02/11 00:30:23;;;;;;;8.83;2.17;;;;;;;3.91;100.00;101757.47;4999361;28;20173;-73
2022/02/11 00:32:27;;;;;;;8.53;2.83;;;;;;;3.56;100.00;101682.59;4999981;28;20444;-74
2022/02/11 00:35:01;;;;;;;9.00;2.57;;;;;;;3.90;100.00;101763.72;4998354;28;20424;-73
2022/02/11 00:37:28;;;;;;;5.67;1.60;;;;;;;2.95;100.00;101536.72;4998954;28;20455;-73
2022/02/11 01:03:59;;;;;;;7.67;2.20;;;;;;;3.87;100.00;101701.13;5004609;28;20425;-89
2022/02/11 01:06:25;;;;;;;14.83;2.73;;;;;;;3.85;100.00;101711.91;5005129;28;20535;-84
2022/02/11 01:08:51;;;;;;;6.20;2.77;;;;;;;3.59;100.00;101687.63;4988584;28;20444;-85
2022/02/11 01:11:33;;;;;;;13.20;3.07;;;;;;;4.03;100.00;101751.94;5006286;28;20494;-85
2022/02/11 01:13:59;;;;;;;7.30;2.13;;;;;;;3.75;100.00;101670.38;4988273;28;20549;-88
2022/02/11 01:16:35;;;;;;;11.63;2.90;;;;;;;4.01;100.00;101732.63;5005015;28;20452;-89
2022/02/11 01:19:14;;;;;;;12.63;2.43;;;;;;;3.81;100.00;101710.47;4989982;28;20199;-85
2022/02/11 01:21:51;;;;;;;6.07;1.80;;;;;;;3.64;100.00;101700.47;5005171;28;20949;-88
2022/02/11 01:24:38;;;;;;;7.63;2.83;;;;;;;3.52;100.00;101651.97;4989848;28;20431;-86
2022/02/11 01:30:58;;;;;;;7.63;2.33;;;;;;;3.99;100.00;101736.38;5005492;28;20802;-87
2022/02/11 02:08:45;;;;;;;9.77;2.50;;;;;;;3.45;100.00;101509.44;5003912;28;20224;-83
2022/02/11 02:22:51;;;;;;;13.93;2.60;;;;;;;4.47;100.00;101595.72;5003476;28;20467;-90
2022/02/11 02:57:53;;;;;;;13.00;2.77;;;;;;;3.79;100.00;101529.34;4999954;28;20537;-89
2022/02/11 03:52:32;;;;;;;7.13;2.30;;;;;;;3.92;100.00;101377.75;5008211;28;20542;-90
2022/02/11 04:56:58;;;;;;;8.90;1.93;;;;;;;4.21;100.00;101379.53;5000738;28;20466;-80
2022/02/11 04:59:39;;;;;;;8.13;2.00;;;;;;;4.66;100.00;101418.69;4997657;28;20514;-82
2022/02/11 05:02:06;;;;;;;11.30;2.63;;;;;;;4.96;100.00;101487.50;5000711;28;20240;-82
2022/02/11 05:04:35;;;;;;;18.10;2.93;;;;;;;5.08;100.00;101497.94;5000608;28;20556;-79
2022/02/11 05:07:03;;;;;;;17.13;3.17;;;;;;;3.36;100.00;101230.00;5000702;28;20459;-79
2022/02/11 05:09:29;;;;;;;15.93;2.93;;;;;;;4.51;100.00;101453.69;4985063;28;20501;-76
2022/02/11 05:11:54;;;;;;;16.43;3.07;;;;;;;4.19;100.00;101357.59;5001464;28;20439;-76
2022/02/11 05:14:20;;;;;;;15.70;4.30;;;;;;;5.06;100.00;101502.56;4981381;28;20436;-78
2022/02/11 05:16:45;;;;;;;14.33;2.80;;;;;;;4.69;100.00;101443.13;4997981;28;20291;-74
2022/02/11 05:19:11;;;;;;;14.37;2.43;;;;;;;4.69;100.00;101445.78;5002791;28;20189;-79
2022/02/11 05:21:36;;;;;;;19.13;3.33;;;;;;;5.12;100.00;101516.13;5000794;28;20201;-77
2022/02/11 05:24:02;;;;;;;17.60;3.83;;;;;;;4.69;100.00;101458.25;4999861;28;20180;-80
2022/02/11 05:26:29;;;;;;;17.80;3.20;;;;;;;5.31;100.00;101509.03;5000766;28;20217;-81
2022/02/11 05:28:55;;;;;;;16.87;3.77;;;;;;;4.40;100.00;101373.34;5002902;28;20542;-78
2022/02/11 05:31:20;;;;;;;19.37;4.70;;;;;;;4.62;100.00;101447.34;5000620;28;20973;-78
2022/02/11 05:33:47;;;;;;;21.23;4.00;;;;;;;4.85;100.00;101444.31;5003905;28;20432;-80
2022/02/11 05:36:14;;;;;;;21.70;3.10;;;;;;;4.53;100.00;101422.47;4999558;28;20268;-79
2022/02/11 05:38:40;;;;;;;25.67;3.93;;;;;;;4.33;100.00;101398.78;5000943;28;20444;-78
2022/02/11 05:41:05;;;;;;;23.03;4.00;;;;;;;5.03;100.00;101479.78;4998225;28;20444;-80
2022/02/11 05:43:31;;;;;;;20.23;4.73;;;;;;;5.20;100.00;101526.84;4999257;28;20308;-80
2022/02/11 05:45:56;;;;;;;13.03;3.77;;;;;;;4.27;100.00;101360.34;5003624;28;20616;-79
2022/02/11 05:48:21;;;;;;;19.33;4.80;;;;;;;4.67;100.00;101442.44;4976539;28;20280;-77
2022/02/11 05:50:47;;;;;;;18.17;3.10;;;;;;;5.24;100.00;101523.94;4995666;28;20250;-77
2022/02/11 05:53:12;;;;;;;19.70;4.33;;;;;;;4.37;100.00;101366.50;5001835;28;20255;-76
2022/02/11 05:55:37;;;;;;;19.07;3.87;;;;;;;4.49;100.00;101410.47;5002414;28;20188;-75
2022/02/11 05:58:03;;;;;;;18.27;2.97;;;;;;;4.47;100.00;101406.28;5003469;28;20224;-75
2022/02/11 06:00:29;;;;;;;20.43;3.70;;;;;;;5.46;100.00;101550.13;5003406;28;20184;-76
2022/02/11 06:02:54;;;;;;;17.57;3.10;;;;;;;4.02;100.00;101317.53;5001119;28;20207;-77
2022/02/11 06:05:21;;;;;;;11.83;2.50;;;;;;;5.06;100.00;101515.88;5000990;28;20191;-77
2022/02/11 06:07:46;;;;;;;9.50;2.70;;;;;;;4.34;100.00;101401.31;4998054;28;20197;-77
2022/02/11 06:10:12;;;;;;;17.17;2.30;;;;;;;5.20;100.00;101560.59;5002310;28;21013;-77
2022/02/11 06:12:38;;;;;;;9.37;2.03;;;;;;;4.83;100.00;101483.50;5003580;28;20181;-78
2022/02/11 06:15:04;;;;;;;10.40;2.60;;;;;;;4.96;100.00;101499.97;5006354;28;20927;-75
2022/02/11 06:17:29;;;;;;;11.70;1.90;;;;;;;5.57;100.00;101602.31;5001498;28;20200;-78
2022/02/11 06:19:57;;;;;;;6.70;1.53;;;;;;;5.45;100.00;101593.69;5005391;28;20438;-77
2022/02/11 06:22:23;;;;;;;13.03;2.07;;;;;;;4.92;100.00;101506.56;4995633;28;20196;-76
2022/02/11 06:24:48;;;;;;;11.17;2.80;;;;;;;4.97;100.00;101521.06;4982747;28;20799;-79
2022/02/11 06:27:15;;;;;;;9.17;1.90;;;;;;;4.24;100.00;101427.88;4995694;28;20204;-77
2022/02/11 06:29:40;;;;;;;10.50;2.13;;;;;;;4.95;100.00;101531.03;4980027;28;20185;-77
2022/02/11 06:32:06;;;;;;;11.93;1.53;;;;;;;5.33;100.00;101585.06;4974057;28;20785;-77
2022/02/11 06:34:32;;;;;;;13.77;2.00;;;;;;;5.09;100.00;101553.66;4994459;28;20277;-75
2022/02/11 06:36:57;;;;;;;10.87;2.67;;;;;;;5.29;100.00;101601.44;4995597;28;20215;-76
2022/02/11 06:39:24;;;;;;;26.33;3.20;;;;;;;5.04;100.00;101577.19;4989972;28;23149;-77
2022/02/11 06:41:53;;;;;;;9.40;2.33;;;;;;;5.32;100.00;101651.69;4999179;28;20196;-76
2022/02/11 06:44:20;;;;;;;13.57;2.60;;;;;;;5.63;100.00;101693.06;4993689;28;20482;-77
2022/02/11 06:46:45;;;;;;;14.33;2.97;;;;;;;5.64;100.00;101693.88;4993452;28;20464;-77
2022/02/11 06:49:11;;;;;;;9.63;2.40;;;;;;;5.31;100.00;101664.16;4996997;28;20460;-77
2022/02/11 06:51:36;;;;;;;16.73;2.93;;;;;;;4.90;100.00;101617.53;4985957;28;20199;-77
2022/02/11 06:54:02;;;;;;;20.37;3.50;;;;;;;5.68;100.00;101745.88;4999184;28;20963;-79
2022/02/11 06:56:27;;;;;;;24.17;3.93;;;;;;;5.43;100.00;101704.75;4986763;28;20946;-80
2022/02/11 06:58:55;;;;;;;15.50;3.43;;;;;;;4.43;100.00;101551.84;5002420;28;20181;-78
2022/02/11 07:01:21;;;;;;;28.60;3.83;;;;;;;5.75;100.00;101756.75;5000997;22;20713;-73
2022/02/11 07:03:47;;;;;;;11.70;3.07;;;;;;;5.61;100.00;101776.69;4992693;28;20428;-72
2022/02/11 07:06:12;;;;;;;14.30;2.97;;;;;;;5.33;100.00;101728.72;4994335;28;20448;-72
2022/02/11 07:08:38;;;;;;;17.20;4.67;;;;;;;5.29;100.00;101737.09;4993850;28;20185;-71
2022/02/11 07:11:03;;;;;;;15.77;3.37;;;;;;;5.70;100.00;101793.63;4993467;28;20204;-72
2022/02/11 07:13:29;;;;;;;16.43;3.40;;;;;;;5.69;100.00;101802.59;4975794;28;20685;-72
2022/02/11 07:15:54;;;;;;;13.73;3.20;;;;;;;5.22;100.00;101744.84;4991455;28;20408;-71
2022/02/11 07:18:19;;;;;;;17.40;3.53;;;;;;;5.28;100.00;101762.88;4995211;28;20278;-72
2022/02/11 07:20:45;;;;;;;13.93;3.40;;;;;;;5.25;100.00;101786.28;4975096;28;20825;-71
2022/02/11 07:23:12;;;;;;;17.13;3.33;;;;;;;4.97;100.00;101731.13;4997135;28;20223;-72
2022/02/11 07:25:38;;;;;;;19.27;3.47;;;;;;;5.01;100.00;101755.63;4980921;28;21201;-72
2022/02/11 07:28:04;;;;;;;14.97;2.90;;;;;;;5.68;100.00;101863.00;4990157;28;20448;-72
2022/02/11 07:30:32;;;;;;;14.80;2.37;;;;;;;5.63;100.00;101878.53;4994680;28;20592;-72
2022/02/11 07:32:58;;;;;;;16.17;2.00;;;;;;;5.56;100.00;101864.13;4997456;28;20185;-73
2022/02/11 07:35:24;;;;;;;7.53;1.70;;;;;;;5.60;100.00;101895.63;4987508;28;20535;-71
2022/02/11 07:37:50;;;;;;;5.40;1.93;;;;;;;5.64;100.00;101886.41;4978618;28;20389;-72
2022/02/11 07:40:16;;;;;;;11.90;2.10;;;;;;;5.65;100.00;101896.06;4983775;28;20552;-73
2022/02/11 07:42:42;;;;;;;16.53;3.40;;;;;;;5.24;100.00;101843.97;4981140;28;20834;-72
2022/02/11 07:45:09;;;;;;;14.13;2.73;;;;;;;5.62;100.00;101895.50;4978350;28;20196;-71
2022/02/11 07:47:35;;;;;;;18.67;3.27;;;;;;;4.92;100.00;101814.97;4975240;28;20461;-72
2022/02/11 07:50:00;;;;;;;16.47;4.67;;;;;;;4.82;100.00;101814.91;4966680;28;20467;-72
2022/02/11 07:52:25;;;;;;;12.27;2.90;;;;;;;5.57;100.00;101954.47;4980685;28;20180;-72
2022/02/11 07:54:51;;;;;;;15.70;2.90;;;;;;;5.22;100.00;101912.41;4996592;28;20199;-72
2022/02/11 07:57:17;;;;;;;17.83;3.57;;;;;;;5.51;100.00;101963.00;4996468;28;20183;-73
2022/02/11 07:59:43;;;;;;;11.70;2.77;;;;;;;5.55;100.00;101988.34;4991032;28;20224;-72
2022/02/11 08:02:10;;;;;;;23.43;3.80;;;;;;;5.31;100.00;101980.75;4998789;28;20497;-72
2022/02/11 08:04:36;;;;;;;19.23;3.27;;;;;;;5.51;100.00;101999.41;4969181;28;20932;-73
2022/02/11 08:07:01;;;;;;;12.60;2.87;;;;;;;5.20;100.00;101975.53;4975506;28;20448;-72
2022/02/11 08:09:27;;;;;;;12.17;2.93;;;;;;;5.26;100.00;101987.44;4985292;28;20197;-72
2022/02/11 08:11:53;;;;;;;16.47;2.87;;;;;;;5.39;100.00;102015.50;4989815;28;20607;-72
2022/02/11 08:14:19;;;;;;;8.50;2.33;;;;;;;4.86;100.00;101969.66;4984666;28;20195;-72
2022/02/11 08:16:44;;;;;;;11.50;2.40;;;;;;;5.21;100.00;102033.94;4980337;28;20450;-73
2022/02/11 08:19:10;;;;;;;13.33;2.40;;;;;;;5.07;100.00;102022.81;4989083;28;20693;-72
2022/02/11 08:21:35;;;;;;;13.10;2.73;;;;;;;4.92;100.00;102022.34;4996803;28;20413;-72
2022/02/11 08:24:01;;;;;;;14.03;2.77;;;;;;;4.65;100.00;101990.97;5000025;28;20693;-72
2022/02/11 08:26:29;;;;;;;9.57;2.13;;;;;;;4.97;100.00;102062.63;4997456;28;20192;-72
2022/02/11 08:28:56;;;;;;;15.30;2.70;;;;;;;4.75;100.00;102019.31;5000452;28;20189;-72
2022/02/11 08:31:22;;;;;;;13.90;2.13;;;;;;;5.26;100.00;102123.13;4999998;28;20445;-71
2022/02/11 08:33:49;;;;;;;10.87;2.50;;;;;;;5.24;100.00;102138.41;4995468;28;23834;-72
2022/02/11 08:36:15;;;;;;;12.00;1.90;;;;;;;5.13;100.00;102148.13;4978959;28;20483;-72
2022/02/11 08:38:40;;;;;;;10.40;1.87;;;;;;;4.85;100.00;102108.91;4998301;28;20432;-72
2022/02/11 08:41:06;;;;;;;8.67;2.60;;;;;;;5.13;100.00;102158.75;4995202;28;20517;-71
2022/02/11 08:43:32;;;;;;;11.03;2.00;;;;;;;5.22;100.00;102167.78;4999603;28;20181;-72
2022/02/11 08:45:57;;;;;;;10.47;1.93;;;;;;;4.64;100.00;102091.13;4993678;28;20178;-73
2022/02/11 08:48:22;;;;;;;14.23;1.93;;;;;;;4.62;100.00;102094.88;4997066;28;20340;-73
2022/02/11 08:50:48;;;;;;;8.60;2.00;;;;;;;5.25;100.00;102222.53;4994053;28;20280;-72
2022/02/11 08:53:15;;;;;;;8.73;1.87;;;;;;;4.59;100.00;102146.47;4994967;28;20642;-73
2022/02/11 08:55:41;;;;;;;12.30;2.20;;;;;;;5.29;100.00;102234.59;4973696;28;20547;-72
2022/02/11 08:58:07;;;;;;;7.90;1.73;;;;;;;5.15;100.00;102260.56;4994874;28;20433;-72
2022/02/11 09:00:33;;;;;;;6.40;1.70;;;;;;;5.09;100.00;102268.19;4998139;28;20209;-72
2022/02/11 09:02:59;;;;;;;6.47;1.77;;;;;;;5.17;100.00;102279.03;5000531;28;20456;-71
2022/02/11 09:05:27;;;;;;;6.07;1.40;;;;;;;5.20;100.00;102287.59;4998854;28;20439;-72
2022/02/11 09:08:00;;;;;;;9.73;1.73;;;;;;;4.36;100.00;102171.44;5000110;28;20272;-72
2022/02/11 09:10:27;;;;;;;11.50;2.23;;;;;;;5.18;100.00;102305.53;4993017;28;20530;-73
2022/02/11 09:12:54;;;;;;;4.13;1.50;;;;;;;5.26;100.00;102315.50;4997389;28;20518;-72
2022/02/11 09:15:21;;;;;;;9.93;1.83;;;;;;;5.14;100.00;102322.69;4993170;28;20445;-72
2022/02/11 09:17:47;;;;;;;11.73;2.10;;;;;;;5.12;100.00;102331.75;4995153;28;20573;-73
2022/02/11 09:20:13;;;;;;;6.43;1.50;;;;;;;4.65;100.00;102267.38;4980257;28;20466;-72
2022/02/11 09:22:38;;;;;;;10.40;1.30;;;;;;;4.79;100.00;102258.28;4990533;28;20460;-73
2022/02/11 09:25:04;;;;;;;9.47;1.73;;;;;;;5.11;100.00;102346.88;4998558;28;20177;-72
2022/02/11 09:27:30;;;;;;;6.47;1.70;;;;;;;5.08;100.00;102320.53;4995617;28;20190;-73
2022/02/11 09:29:55;;;;;;;8.53;1.47;;;;;;;5.35;100.00;102394.59;4997365;28;20460;-72
2022/02/11 09:32:20;;;;;;;9.37;1.70;;;;;;;5.33;100.00;102403.66;4988383;28;20300;-71
2022/02/11 09:34:46;;;;;;;8.13;1.50;;;;;;;5.14;100.00;102388.34;4994638;28;20672;-72
2022/02/11 09:37:11;;;;;;;8.53;1.77;;;;;;;5.33;100.00;102423.13;4997052;28;20200;-72
2022/02/11 09:39:37;;;;;;;9.37;2.10;;;;;;;5.30;100.00;102435.84;4993459;28;20225;-70
2022/02/11 09:42:02;;;;;;;11.10;2.13;;;;;;;5.26;100.00;102429.06;4985809;28;20217;-72
2022/02/11 09:44:28;;;;;;;8.40;2.60;;;;;;;5.31;100.00;102425.06;4994915;28;20181;-72
2022/02/11 09:46:55;;;;;;;11.07;2.33;;;;;;;5.31;100.00;102485.41;4996244;28;20204;-72
2022/02/11 09:49:21;;;;;;;13.37;2.30;;;;;;;4.59;100.00;102345.78;4977841;28;20436;-72
2022/02/11 09:51:49;;;;;;;7.27;1.93;;;;;;;5.41;100.00;102494.34;4992449;28;20439;-72
2022/02/11 09:54:17;;;;;;;7.80;2.40;;;;;;;5.61;100.00;102509.53;4990398;28;20444;-72
2022/02/11 09:56:43;;;;;;;11.30;2.40;;;;;;;5.32;100.00;102453.38;4985938;28;20571;-71
2022/02/11 09:59:08;;;;;;;10.27;2.30;;;;;;;5.44;100.00;102513.56;4986205;28;20945;-72
2022/02/11 10:01:35;;;;;;;7.57;1.90;;;;;;;5.17;100.00;102495.34;4988551;28;20239;-72
2022/02/11 10:04:07;;;;;;;6.63;1.67;;;;;;;5.09;100.00;102508.44;4988933;28;20209;-72
2022/02/11 10:06:33;;;;;;;6.20;1.40;;;;;;;5.11;100.00;102503.81;4993599;28;20540;-72
2022/02/11 10:08:59;;;;;;;6.63;1.80;;;;;;;4.55;100.00;102426.75;4993622;28;20535;-72
2022/02/11 10:11:24;;;;;;;6.60;1.60;;;;;;;5.44;100.00;102574.78;4991181;28;20252;-72
2022/02/11 10:13:50;;;;;;;12.73;2.53;;;;;;;5.05;100.00;102520.25;4994105;28;20441;-72
2022/02/11 10:16:16;;;;;;;7.20;2.17;;;;;;;4.60;100.00;102439.66;4991443;28;20620;-72
2022/02/11 10:18:46;;;;;;;10.10;2.07;;;;;;;5.27;100.00;102585.09;4991966;28;20616;-72
2022/02/11 10:21:15;;;;;;;11.63;2.53;;;;;;;5.11;100.00;102572.97;4992767;28;20503;-72
2022/02/11 10:23:43;;;;;;;7.07;2.73;;;;;;;4.87;100.00;102541.19;4993430;28;21556;-72
2022/02/11 10:26:13;;;;;;;9.37;2.10;;;;;;;5.19;100.00;102602.47;4990309;28;20435;-72
2022/02/11 10:28:48;;;;;;;17.33;3.00;;;;;;;5.35;100.00;102635.84;4993784;28;20439;-72
2022/02/11 10:31:30;;;;;;;10.73;2.43;;;;;;;5.42;100.00;102661.03;4994932;28;20464;-72
2022/02/11 10:33:56;;;;;;;10.10;3.13;;;;;;;5.52;100.00;102653.16;4986003;28;20448;-72
2022/02/11 10:36:27;;;;;;;13.53;2.30;;;;;;;5.60;100.00;102654.25;4995694;28;20445;-72
2022/02/11 10:39:10;;;;;;;17.23;2.73;;;;;;;5.47;100.00;102666.84;4995358;28;20649;-72
2022/02/11 10:41:57;;;;;;;13.03;2.70;;;;;;;5.54;100.00;102678.69;4997353;28;20976;-72
2022/02/11 10:44:36;;;;;;;12.40;3.23;;;;;;;5.48;100.00;102689.81;4987191;28;20956;-72
2022/02/11 10:47:04;;;;;;;10.43;2.63;;;;;;;5.63;100.00;102679.78;4981282;28;20454;-72
2022/02/11 10:49:33;;;;;;;12.63;2.87;;;;;;;5.54;100.00;102667.22;5002059;28;20444;-73
2022/02/11 10:52:17;;;;;;;9.00;2.90;;;;;;;5.56;100.00;102689.25;4991130;28;22170;-72
2022/02/11 10:54:51;;;;;;;6.53;1.83;;;;;;;5.66;100.00;102704.34;4994953;28;20424;-72
2022/02/11 10:57:23;;;;;;;7.00;2.03;;;;;;;5.87;100.00;102720.47;4991682;28;20877;-72
2022/02/11 10:59:50;;;;;;;6.23;2.20;;;;;;;5.89;100.00;102723.81;4997177;28;20828;-72
2022/02/11 11:02:17;;;;;;;8.30;2.63;;;;;;;5.97;100.00;102723.25;4999314;28;20471;-72
2022/02/11 11:04:47;;;;;;;12.87;2.47;;;;;;;5.30;100.00;102638.06;5000824;28;20796;-72
2022/02/11 11:07:21;;;;;;;8.10;2.23;;;;;;;5.78;100.00;102723.81;4997495;28;20562;-72
2022/02/11 11:09:48;;;;;;;9.13;1.80;;;;;;;5.74;100.00;102711.75;5001146;28;20444;-72
2022/02/11 11:12:15;;;;;;;8.47;2.03;;;;;;;5.35;100.00;102625.22;5004479;28;20431;-72
2022/02/11 11:14:42;;;;;;;15.00;2.97;;;;;;;6.06;100.00;102753.66;5001757;28;20448;-72
2022/02/11 11:17:07;;;;;;;6.57;2.07;;;;;;;6.02;100.00;102754.88;5002606;28;20429;-71
2022/02/11 11:19:36;;;;;;;7.50;1.77;;;;;;;6.06;100.00;102757.16;4984182;28;20513;-72
2022/02/11 11:22:11;;;;;;;8.33;2.13;;;;;;;6.02;100.00;102754.88;4998705;28;20220;-71
2022/02/11 11:25:00;;;;;;;9.97;2.10;;;;;;;6.01;100.00;102758.47;5000491;28;21003;-72
2022/02/11 11:27:50;;;;;;;10.40;2.10;;;;;;;6.03;100.00;102773.38;5001300;28;21109;-72
2022/02/11 11:30:29;;;;;;;6.07;1.83;;;;;;;6.10;100.00;102763.06;5005380;28;20463;-72
2022/02/11 11:33:22;;;;;;;8.07;2.20;;;;;;;5.96;100.00;102790.84;5001391;28;20436;-73
2022/02/11 11:35:53;;;;;;;8.73;1.90;;;;;;;5.87;100.00;102807.47;4996874;28;20462;-72
2022/02/11 11:38:23;;;;;;;8.50;2.23;;;;;;;5.65;100.00;102800.31;4999235;28;20966;-72
2022/02/11 11:41:05;;;;;;;6.90;1.53;;;;;;;5.58;100.00;102815.06;4996552;28;20466;-72
2022/02/11 11:43:41;;;;;;;5.80;1.63;;;;;;;5.78;100.00;102822.34;4998336;28;20500;-72
2022/02/11 11:46:20;;;;;;;7.37;1.60;;;;;;;5.90;100.00;102820.56;5000773;28;20443;-72
2022/02/11 11:49:00;;;;;;;9.13;2.07;;;;;;;5.83;100.00;102827.34;4999842;28;20522;-72
2022/02/11 11:51:47;;;;;;;10.97;2.30;;;;;;;5.79;100.00;102805.44;4995219;28;20478;-72
2022/02/11 11:54:16;;;;;;;13.50;2.40;;;;;;;5.95;100.00;102834.41;4983416;28;20626;-71
2022/02/11 11:56:42;;;;;;;7.77;1.67;;;;;;;5.52;100.00;102747.16;4970145;28;20447;-72
2022/02/11 11:59:22;;;;;;;11.93;2.00;;;;;;;5.66;100.00;102762.91;4988441;28;21172;-71
2022/02/11 12:02:11;;;;;;;6.53;2.10;;;;;;;6.37;100.00;102849.81;4977321;28;20472;-72
2022/02/11 12:04:39;;;;;;;9.33;2.47;;;;;;;6.37;100.00;102845.31;4969995;28;20489;-71
2022/02/11 12:07:10;;;;;;;7.80;2.53;;;;;;;5.91;100.00;102806.28;4994809;28;20527;-72
2022/02/11 12:09:38;;;;;;;7.17;1.93;;;;;;;5.81;100.00;102823.94;4992022;28;20488;-72
2022/02/11 12:12:10;;;;;;;8.57;2.60;;;;;;;5.96;100.00;102860.09;4969462;28;20501;-72
2022/02/11 12:14:38;;;;;;;9.00;2.40;;;;;;;6.02;100.00;102861.44;4974780;28;20475;-72
2022/02/11 12:17:05;;;;;;;9.40;2.20;;;;;;;5.60;100.00;102784.69;4979227;28;20456;-72
2022/02/11 12:19:32;;;;;;;7.60;2.07;;;;;;;6.15;100.00;102867.47;4983208;28;20443;-73
2022/02/11 12:22:00;;;;;;;6.90;1.97;;;;;;;6.14;100.00;102860.47;4983360;28;20472;-72
2022/02/11 12:27:20;;;;;;;7.50;1.80;;;;;;;6.08;100.00;102885.78;4979338;28;20519;-72
2022/02/11 12:29:51;;;;;;;9.43;2.00;;;;;;;6.22;100.00;102882.03;4964188;28;20459;-71
2022/02/11 12:32:19;;;;;;;7.80;2.27;;;;;;;6.44;100.00;102885.66;4977667;28;20490;-72
2022/02/11 12:34:52;;;;;;;7.33;2.03;;;;;;;6.77;100.00;102839.47;4986838;28;20436;-72
2022/02/11 12:37:19;;;;;;;9.87;2.20;;;;;;;6.51;100.00;102823.75;4989031;28;20488;-72
2022/02/11 12:39:46;;;;;;;7.30;2.10;;;;;;;6.49;100.00;102856.81;4966479;28;20574;-72
2022/02/11 12:42:16;;;;;;;7.77;1.80;;;;;;;6.65;100.00;102885.75;4979105;28;20854;-71
2022/02/11 12:44:43;;;;;;;10.83;2.00;;;;;;;6.63;100.00;102893.91;4973983;28;21855;-72
2022/02/11 12:47:08;;;;;;;9.53;1.80;;;;;;;6.63;100.00;102898.38;4985927;28;20940;-71
2022/02/11 12:49:46;;;;;;;4.37;1.70;;;;;;;6.59;100.00;102899.59;4995572;28;20455;-71
2022/02/11 12:52:18;;;;;;;12.10;2.27;;;;;;;6.28;100.00;102870.03;4979773;28;20185;-72
2022/02/11 12:55:10;;;;;;;6.73;2.03;;;;;;;6.47;100.00;102910.25;4983482;28;20443;-72
2022/02/11 12:57:37;;;;;;;5.63;1.60;;;;;;;6.56;100.00;102916.66;4985280;28;21088;-71
2022/02/11 13:00:05;;;;;;;8.37;1.97;;;;;;;6.40;100.00;102919.72;4987314;28;20463;-72
2022/02/11 13:02:34;;;;;;;7.67;1.83;;;;;;;6.39;100.00;102910.00;4997601;28;20467;-71
2022/02/11 13:05:21;;;;;;;7.20;2.00;;;;;;;6.53;100.00;102939.09;4996718;28;20452;-71
2022/02/11 13:07:54;;;;;;;10.50;2.00;;;;;;;6.28;100.00;102892.22;4997970;28;20427;-71
2022/02/11 13:10:23;;;;;;;7.50;1.80;;;;;;;6.27;100.00;102950.94;4969337;28;20516;-71
2022/02/11 13:12:52;;;;;;;7.67;2.43;;;;;;;6.32;100.00;102943.44;4997782;28;21043;-71
2022/02/11 13:15:19;;;;;;;4.23;1.60;;;;;;;6.38;100.00;102942.13;4996145;28;20468;-71
2022/02/11 13:17:46;;;;;;;7.13;2.43;;;;;;;5.75;100.00;102835.91;4994655;28;20452;-71
2022/02/11 13:20:15;;;;;;;8.27;1.63;;;;;;;6.31;100.00;102957.75;4991543;28;20471;-71
2022/02/11 13:22:44;;;;;;;7.60;2.07;;;;;;;5.61;100.00;102855.63;4994065;28;20476;-71
2022/02/11 13:25:13;;;;;;;5.47;1.57;;;;;;;6.43;100.00;102961.28;4988590;28;20925;-70
2022/02/11 13:27:39;;;;;;;10.43;2.43;;;;;;;6.47;100.00;102966.25;4991738;28;20532;-71
2022/02/11 13:30:06;;;;;;;13.77;3.40;;;;;;;5.84;100.00;102867.19;4999593;28;20463;-71
2022/02/11 13:32:31;;;;;;;10.63;2.07;;;;;;;6.58;100.00;102976.06;4980129;28;20428;-71
2022/02/11 13:35:03;;;;;;;8.40;1.60;;;;;;;6.32;100.00;102973.63;4999434;28;20969;-71
2022/02/11 13:37:46;;;;;;;6.13;1.53;;;;;;;6.03;100.00;102940.38;4997487;28;20177;-71
2022/02/11 13:40:20;;;;;;;5.90;1.70;;;;;;;6.20;100.00;102953.25;5000380;28;21786;-71
2022/02/11 13:43:03;;;;;;;4.93;1.40;;;;;;;6.50;100.00;102987.31;4995293;28;20456;-71
2022/02/11 13:45:47;;;;;;;6.47;1.90;;;;;;;6.48;100.00;102994.63;4998661;28;20450;-71
2022/02/11 13:48:13;;;;;;;9.80;1.87;;;;;;;6.40;100.00;102991.69;4996776;28;21199;-71
2022/02/11 13:50:58;;;;;;;6.00;1.80;;;;;;;6.53;100.00;103007.56;4997263;28;20495;-71
2022/02/11 13:53:53;;;;;;;9.13;1.93;;;;;;;6.51;100.00;103014.88;4998232;28;20435;-71
2022/02/11 13:56:34;;;;;;;7.03;1.53;;;;;;;6.49;100.00;103014.97;4966651;28;20455;-70
2022/02/11 13:59:11;;;;;;;6.23;1.43;;;;;;;6.00;100.00;102952.09;4988053;28;20452;-71
2022/02/11 14:01:38;;;;;;;3.60;1.20;;;;;;;5.61;100.00;102897.34;4978399;28;20590;-71
2022/02/11 14:04:20;;;;;;;2.90;1.30;;;;;;;6.41;100.00;103019.19;4988530;28;20443;-71
2022/02/11 14:06:47;;;;;;;6.00;1.20;;;;;;;6.77;100.00;103018.16;4979368;28;20535;-71
2022/02/11 14:09:32;;;;;;;4.53;1.17;;;;;;;7.17;100.00;103025.66;4981788;28;20470;-71
2022/02/11 14:11:59;;;;;;;7.60;1.87;;;;;;;7.02;100.00;102988.53;4991271;28;20452;-71
2022/02/11 14:14:25;;;;;;;6.50;1.63;;;;;;;6.92;100.00;102984.94;4986402;28;20450;-71
2022/02/11 14:16:52;;;;;;;6.00;1.30;;;;;;;7.10;100.00;103043.13;4995148;28;20513;-71
2022/02/11 14:19:24;;;;;;;7.23;1.80;;;;;;;7.35;100.00;103039.38;4991172;28;20456;-72
2022/02/11 14:21:53;;;;;;;9.30;1.63;;;;;;;6.95;100.00;102976.69;4993845;28;20858;-73
2022/02/11 14:24:20;;;;;;;7.90;1.60;;;;;;;7.18;100.00;102995.34;4961263;28;20467;-72
2022/02/11 14:26:46;;;;;;;10.43;1.90;;;;;;;6.70;100.00;102993.78;4988462;28;20439;-72
2022/02/11 14:29:12;;;;;;;3.27;1.23;;;;;;;5.50;100.00;102812.16;4993614;28;20534;-71
2022/02/11 14:31:39;;;;;;;6.07;1.60;;;;;;;7.23;100.00;103059.84;4989794;28;20598;-70
2022/02/11 14:34:06;;;;;;;5.67;2.00;;;;;;;6.99;100.00;103038.63;4993799;28;20219;-71
2022/02/11 14:36:32;;;;;;;7.53;2.13;;;;;;;6.46;100.00;102916.56;4991260;28;20942;-71
2022/02/11 14:38:58;;;;;;;8.60;2.23;;;;;;;6.42;100.00;102968.44;4990616;28;20484;-71
2022/02/11 14:44:08;;;;;;;7.43;2.30;;;;;;;7.07;100.00;103043.38;4991125;28;20455;-71
2022/02/11 14:46:33;;;;;;;12.17;2.30;;;;;;;6.67;100.00;102972.69;4971790;28;20495;-71
2022/02/11 14:48:59;;;;;;;10.07;2.13;;;;;;;7.19;100.00;103087.78;4970402;28;20732;-71
2022/02/11 14:51:24;;;;;;;13.07;2.00;;;;;;;6.85;100.00;103049.56;4971596;28;20212;-71
2022/02/11 14:53:51;;;;;;;12.77;1.80;;;;;;;6.65;100.00;103061.75;4977138;28;20193;-71
2022/02/11 14:56:17;;;;;;;5.17;1.97;;;;;;;6.76;100.00;103080.47;4970235;28;20871;-70
2022/02/11 14:58:43;;;;;;;8.27;2.20;;;;;;;6.33;100.00;103057.97;4971991;28;20459;-70
2022/02/11 15:01:09;;;;;;;5.03;1.40;;;;;;;6.66;100.00;103093.66;4977144;28;20216;-71
2022/02/11 15:03:35;;;;;;;9.97;2.03;;;;;;;6.07;100.00;103011.94;4966839;28;20509;-70
2022/02/11 15:06:00;;;;;;;11.10;1.93;;;;;;;6.48;100.00;103103.06;4991083;28;21125;-72
2022/02/11 15:08:26;;;;;;;8.53;2.00;;;;;;;6.44;100.00;103109.59;4993842;28;20697;-71
2022/02/11 15:10:52;;;;;;;5.50;2.53;;;;;;;6.07;100.00;103054.56;4978147;28;20204;-70
2022/02/11 15:13:17;;;;;;;5.97;1.70;;;;;;;6.51;100.00;103114.34;4978113;28;20181;-70
2022/02/11 15:15:43;;;;;;;8.60;1.93;;;;;;;6.57;100.00;103119.22;4995577;28;20263;-71
2022/02/11 15:18:08;;;;;;;5.90;1.97;;;;;;;6.59;100.00;103134.25;4978774;28;20203;-71
2022/02/11 15:20:38;;;;;;;5.13;1.87;;;;;;;6.44;100.00;103099.78;4989582;28;20271;-71
2022/02/11 15:23:03;;;;;;;6.20;1.50;;;;;;;5.93;100.00;103045.88;4973294;28;20850;-70